sensor_id;sensor_type;location;lat;lon;timestamp;temperature;humidity
51996;DHT22;38010;53.264;6.592;2023-08-20T00:01:29;21.90;99.90
51996;DHT22;38010;53.264;6.592;2023-08-20T00:03:56;21.90;99.90
51996;DHT22;38010;53.264;6.592;2023-08-20T00:06:22;21.90;99.90
51996;DHT22;38010;53.264;6.592;2023-08-20T00:08:48;21.90;99.90
51996;DHT22;38010;53.264;6.592;2023-08-20T00:11:15;21.80;99.90
51996;DHT22;38010;53.264;6.592;2023-08-20T00:13:41;21.80;99.90
51996;DHT22;38010;53.264;6.592;2023-08-20T00:16:07;21.80;99.90
51996;DHT22;38010;53.264;6.592;2023-08-20T00:18:33;21.80;99.90
51996;DHT22;38010;53.264;6.592;2023-08-20T00:20:59;21.80;99.90
51996;DHT22;38010;53.264;6.592;2023-08-20T00:23:26;21.80;99.90
51996;DHT22;38010;53.264;6.592;2023-08-20T00:25:52;21.80;99.90
51996;DHT22;38010;53.264;6.592;2023-08-20T00:28:19;21.80;99.90
51996;DHT22;38010;53.264;6.592;2023-08-20T00:30:45;21.80;99.90
51996;DHT22;38010;53.264;6.592;2023-08-20T00:33:11;21.80;99.90
51996;DHT22;38010;53.264;6.592;2023-08-20T00:35:37;21.80;99.90
51996;DHT22;38010;53.264;6.592;2023-08-20T00:38:03;21.80;99.90
51996;DHT22;38010;53.264;6.592;2023-08-20T00:40:30;21.80;99.90
51996;DHT22;38010;53.264;6.592;2023-08-20T00:42:56;21.80;99.90
51996;DHT22;38010;53.264;6.592;2023-08-20T00:45:22;21.80;99.90
51996;DHT22;38010;53.264;6.592;2023-08-20T00:47:48;21.80;99.90
51996;DHT22;38010;53.264;6.592;2023-08-20T00:50:14;21.80;99.90
51996;DHT22;38010;53.264;6.592;2023-08-20T00:52:40;21.70;99.90
51996;DHT22;38010;53.264;6.592;2023-08-20T00:55:10;21.70;99.90
51996;DHT22;38010;53.264;6.592;2023-08-20T00:57:39;21.70;99.90
51996;DHT22;38010;53.264;6.592;2023-08-20T01:00:06;21.70;99.90
51996;DHT22;38010;53.264;6.592;2023-08-20T01:02:34;21.70;99.90
51996;DHT22;38010;53.264;6.592;2023-08-20T01:05:01;21.70;99.90
51996;DHT22;38010;53.264;6.592;2023-08-20T01:12:46;21.70;99.90
51996;DHT22;38010;53.264;6.592;2023-08-20T01:15:11;21.70;99.90
51996;DHT22;38010;53.264;6.592;2023-08-20T01:17:40;21.70;99.90
51996;DHT22;38010;53.264;6.592;2023-08-20T01:20:10;21.70;99.90
51996;DHT22;38010;53.264;6.592;2023-08-20T01:22:59;21.70;99.90
51996;DHT22;38010;53.264;6.592;2023-08-20T01:26:00;21.70;99.90
51996;DHT22;38010;53.264;6.592;2023-08-20T01:28:31;21.70;99.90
51996;DHT22;38010;53.264;6.592;2023-08-20T01:30:58;21.70;99.90
51996;DHT22;38010;53.264;6.592;2023-08-20T01:33:24;21.70;99.90
51996;DHT22;38010;53.264;6.592;2023-08-20T01:35:54;21.70;99.90
51996;DHT22;38010;53.264;6.592;2023-08-20T01:38:20;21.60;99.90
51996;DHT22;38010;53.264;6.592;2023-08-20T01:40:47;21.60;99.90
51996;DHT22;38010;53.264;6.592;2023-08-20T01:43:13;21.60;99.90
51996;DHT22;38010;53.264;6.592;2023-08-20T01:45:38;21.60;99.90
51996;DHT22;38010;53.264;6.592;2023-08-20T01:48:04;21.70;99.90
51996;DHT22;38010;53.264;6.592;2023-08-20T01:50:30;21.60;99.90
51996;DHT22;38010;53.264;6.592;2023-08-20T01:52:56;21.60;99.90
51996;DHT22;38010;53.264;6.592;2023-08-20T01:55:22;21.60;99.90
51996;DHT22;38010;53.264;6.592;2023-08-20T01:57:47;21.60;99.90
51996;DHT22;38010;53.264;6.592;2023-08-20T02:00:13;21.60;99.90
51996;DHT22;38010;53.264;6.592;2023-08-20T02:02:39;21.60;99.90
51996;DHT22;38010;53.264;6.592;2023-08-20T02:05:05;21.60;99.90
51996;DHT22;38010;53.264;6.592;2023-08-20T02:07:31;21.60;99.90
51996;DHT22;38010;53.264;6.592;2023-08-20T02:09:57;21.60;99.90
51996;DHT22;38010;53.264;6.592;2023-08-20T02:12:22;21.60;99.90
51996;DHT22;38010;53.264;6.592;2023-08-20T02:14:48;21.60;99.90
51996;DHT22;38010;53.264;6.592;2023-08-20T02:17:14;21.60;99.90
51996;DHT22;38010;53.264;6.592;2023-08-20T02:19:40;21.60;99.90
51996;DHT22;38010;53.264;6.592;2023-08-20T02:22:06;21.60;99.90
51996;DHT22;38010;53.264;6.592;2023-08-20T02:24:31;21.60;99.90
51996;DHT22;38010;53.264;6.592;2023-08-20T02:26:57;21.60;99.90
51996;DHT22;38010;53.264;6.592;2023-08-20T02:29:23;21.50;99.90
51996;DHT22;38010;53.264;6.592;2023-08-20T02:31:48;21.50;99.90
51996;DHT22;38010;53.264;6.592;2023-08-20T02:34:14;21.60;99.90
51996;DHT22;38010;53.264;6.592;2023-08-20T02:36:40;21.50;99.90
51996;DHT22;38010;53.264;6.592;2023-08-20T02:39:05;21.50;99.90
51996;DHT22;38010;53.264;6.592;2023-08-20T02:41:35;21.50;99.90
51996;DHT22;38010;53.264;6.592;2023-08-20T02:44:02;21.50;99.90
51996;DHT22;38010;53.264;6.592;2023-08-20T02:46:29;21.50;99.90
51996;DHT22;38010;53.264;6.592;2023-08-20T02:48:54;21.50;99.90
51996;DHT22;38010;53.264;6.592;2023-08-20T02:51:20;21.50;99.90
51996;DHT22;38010;53.264;6.592;2023-08-20T02:53:46;21.50;99.90
51996;DHT22;38010;53.264;6.592;2023-08-20T02:56:12;21.50;99.90
51996;DHT22;38010;53.264;6.592;2023-08-20T02:58:37;21.50;99.90
51996;DHT22;38010;53.264;6.592;2023-08-20T03:01:03;21.50;99.90
51996;DHT22;38010;53.264;6.592;2023-08-20T03:03:29;21.50;99.90
51996;DHT22;38010;53.264;6.592;2023-08-20T03:05:54;21.50;99.90
51996;DHT22;38010;53.264;6.592;2023-08-20T03:08:20;21.50;99.90
51996;DHT22;38010;53.264;6.592;2023-08-20T03:10:46;21.50;99.90
51996;DHT22;38010;53.264;6.592;2023-08-20T03:13:11;21.50;99.90
51996;DHT22;38010;53.264;6.592;2023-08-20T03:15:37;21.50;99.90
51996;DHT22;38010;53.264;6.592;2023-08-20T03:18:03;21.40;99.90
51996;DHT22;38010;53.264;6.592;2023-08-20T03:20:29;21.40;99.90
51996;DHT22;38010;53.264;6.592;2023-08-20T03:22:57;21.40;99.90
51996;DHT22;38010;53.264;6.592;2023-08-20T03:25:23;21.50;99.90
51996;DHT22;38010;53.264;6.592;2023-08-20T03:27:49;21.40;99.90
51996;DHT22;38010;53.264;6.592;2023-08-20T03:30:15;21.40;99.90
51996;DHT22;38010;53.264;6.592;2023-08-20T03:32:41;21.40;99.90
51996;DHT22;38010;53.264;6.592;2023-08-20T03:35:07;21.40;99.90
51996;DHT22;38010;53.264;6.592;2023-08-20T03:37:33;21.40;99.90
51996;DHT22;38010;53.264;6.592;2023-08-20T03:39:58;21.40;99.90
51996;DHT22;38010;53.264;6.592;2023-08-20T03:42:25;21.40;99.90
51996;DHT22;38010;53.264;6.592;2023-08-20T03:44:50;21.40;99.90
51996;DHT22;38010;53.264;6.592;2023-08-20T03:47:16;21.40;99.90
51996;DHT22;38010;53.264;6.592;2023-08-20T03:49:46;21.40;99.90
51996;DHT22;38010;53.264;6.592;2023-08-20T03:52:12;21.40;99.90
51996;DHT22;38010;53.264;6.592;2023-08-20T03:54:37;21.40;99.90
51996;DHT22;38010;53.264;6.592;2023-08-20T03:57:03;21.40;99.90
51996;DHT22;38010;53.264;6.592;2023-08-20T03:59:30;21.40;99.90
51996;DHT22;38010;53.264;6.592;2023-08-20T04:01:56;21.40;99.90
51996;DHT22;38010;53.264;6.592;2023-08-20T04:04:22;21.40;99.90
51996;DHT22;38010;53.264;6.592;2023-08-20T04:06:48;21.30;99.90
51996;DHT22;38010;53.264;6.592;2023-08-20T04:09:13;21.40;99.90
51996;DHT22;38010;53.264;6.592;2023-08-20T04:11:39;21.30;99.90
51996;DHT22;38010;53.264;6.592;2023-08-20T04:14:05;21.30;99.90
51996;DHT22;38010;53.264;6.592;2023-08-20T04:16:31;21.40;99.90
51996;DHT22;38010;53.264;6.592;2023-08-20T04:18:56;21.40;99.90
51996;DHT22;38010;53.264;6.592;2023-08-20T04:21:22;21.30;99.90
51996;DHT22;38010;53.264;6.592;2023-08-20T04:23:48;21.30;99.90
51996;DHT22;38010;53.264;6.592;2023-08-20T04:26:13;21.40;99.90
51996;DHT22;38010;53.264;6.592;2023-08-20T04:28:39;21.30;99.90
51996;DHT22;38010;53.264;6.592;2023-08-20T04:31:05;21.30;99.90
51996;DHT22;38010;53.264;6.592;2023-08-20T04:33:30;21.30;99.90
51996;DHT22;38010;53.264;6.592;2023-08-20T04:35:56;21.30;99.90
51996;DHT22;38010;53.264;6.592;2023-08-20T04:38:22;21.30;99.90
51996;DHT22;38010;53.264;6.592;2023-08-20T04:40:48;21.30;99.90
51996;DHT22;38010;53.264;6.592;2023-08-20T04:43:14;21.30;99.90
51996;DHT22;38010;53.264;6.592;2023-08-20T04:45:41;21.30;99.90
51996;DHT22;38010;53.264;6.592;2023-08-20T04:48:07;21.30;99.90
51996;DHT22;38010;53.264;6.592;2023-08-20T04:50:33;21.30;99.90
51996;DHT22;38010;53.264;6.592;2023-08-20T04:52:59;21.30;99.90
51996;DHT22;38010;53.264;6.592;2023-08-20T04:55:26;21.30;99.90
51996;DHT22;38010;53.264;6.592;2023-08-20T04:57:52;21.30;99.90
51996;DHT22;38010;53.264;6.592;2023-08-20T05:00:17;21.30;99.90
51996;DHT22;38010;53.264;6.592;2023-08-20T05:02:43;21.30;99.90
51996;DHT22;38010;53.264;6.592;2023-08-20T05:05:10;21.30;99.90
51996;DHT22;38010;53.264;6.592;2023-08-20T05:07:36;21.30;99.90
51996;DHT22;38010;53.264;6.592;2023-08-20T05:10:01;21.30;99.90
51996;DHT22;38010;53.264;6.592;2023-08-20T05:12:28;21.30;99.90
51996;DHT22;38010;53.264;6.592;2023-08-20T05:14:53;21.30;99.90
51996;DHT22;38010;53.264;6.592;2023-08-20T05:17:19;21.30;99.90
51996;DHT22;38010;53.264;6.592;2023-08-20T05:19:45;21.30;99.90
51996;DHT22;38010;53.264;6.592;2023-08-20T05:22:11;21.40;99.90
51996;DHT22;38010;53.264;6.592;2023-08-20T05:24:38;21.40;99.90
51996;DHT22;38010;53.264;6.592;2023-08-20T05:27:08;21.30;99.90
51996;DHT22;38010;53.264;6.592;2023-08-20T05:29:34;21.30;99.90
51996;DHT22;38010;53.264;6.592;2023-08-20T05:31:59;21.30;99.90
51996;DHT22;38010;53.264;6.592;2023-08-20T05:34:25;21.30;99.90
51996;DHT22;38010;53.264;6.592;2023-08-20T05:36:51;21.30;99.90
51996;DHT22;38010;53.264;6.592;2023-08-20T05:39:16;21.30;99.90
51996;DHT22;38010;53.264;6.592;2023-08-20T05:41:42;21.30;99.90
51996;DHT22;38010;53.264;6.592;2023-08-20T05:44:09;21.30;99.90
51996;DHT22;38010;53.264;6.592;2023-08-20T05:46:35;21.30;99.90
51996;DHT22;38010;53.264;6.592;2023-08-20T05:49:00;21.30;99.90
51996;DHT22;38010;53.264;6.592;2023-08-20T05:51:26;21.30;99.90
51996;DHT22;38010;53.264;6.592;2023-08-20T05:53:52;21.30;99.90
51996;DHT22;38010;53.264;6.592;2023-08-20T05:56:17;21.40;99.90
51996;DHT22;38010;53.264;6.592;2023-08-20T05:58:43;21.30;99.90
51996;DHT22;38010;53.264;6.592;2023-08-20T06:01:09;21.30;99.90
51996;DHT22;38010;53.264;6.592;2023-08-20T06:03:34;21.40;99.90
51996;DHT22;38010;53.264;6.592;2023-08-20T06:06:00;21.30;99.90
51996;DHT22;38010;53.264;6.592;2023-08-20T06:08:26;21.30;99.90
51996;DHT22;38010;53.264;6.592;2023-08-20T06:10:51;21.30;99.90
51996;DHT22;38010;53.264;6.592;2023-08-20T06:13:18;21.40;99.90
51996;DHT22;38010;53.264;6.592;2023-08-20T06:15:43;21.40;99.90
51996;DHT22;38010;53.264;6.592;2023-08-20T06:18:09;21.40;99.90
51996;DHT22;38010;53.264;6.592;2023-08-20T06:20:35;21.40;99.90
51996;DHT22;38010;53.264;6.592;2023-08-20T06:23:00;21.40;99.90
51996;DHT22;38010;53.264;6.592;2023-08-20T06:25:26;21.40;99.90
51996;DHT22;38010;53.264;6.592;2023-08-20T06:27:52;21.40;99.90
51996;DHT22;38010;53.264;6.592;2023-08-20T06:30:17;21.40;99.90
51996;DHT22;38010;53.264;6.592;2023-08-20T06:32:46;21.40;99.90
51996;DHT22;38010;53.264;6.592;2023-08-20T06:35:12;21.40;99.90
51996;DHT22;38010;53.264;6.592;2023-08-20T06:37:41;21.40;99.90
51996;DHT22;38010;53.264;6.592;2023-08-20T06:40:07;21.40;99.90
51996;DHT22;38010;53.264;6.592;2023-08-20T06:42:33;21.40;99.90
51996;DHT22;38010;53.264;6.592;2023-08-20T06:44:59;21.40;99.90
51996;DHT22;38010;53.264;6.592;2023-08-20T06:47:24;21.40;99.90
51996;DHT22;38010;53.264;6.592;2023-08-20T06:49:50;21.40;99.90
51996;DHT22;38010;53.264;6.592;2023-08-20T06:52:16;21.40;99.90
51996;DHT22;38010;53.264;6.592;2023-08-20T06:54:42;21.40;99.90
51996;DHT22;38010;53.264;6.592;2023-08-20T06:57:08;21.50;99.90
51996;DHT22;38010;53.264;6.592;2023-08-20T06:59:33;21.40;99.90
51996;DHT22;38010;53.264;6.592;2023-08-20T07:01:59;21.50;99.90
51996;DHT22;38010;53.264;6.592;2023-08-20T07:04:25;21.50;99.90
51996;DHT22;38010;53.264;6.592;2023-08-20T07:06:51;21.50;99.90
51996;DHT22;38010;53.264;6.592;2023-08-20T07:09:17;21.50;99.90
51996;DHT22;38010;53.264;6.592;2023-08-20T07:11:43;21.50;99.90
51996;DHT22;38010;53.264;6.592;2023-08-20T07:14:08;21.50;99.90
51996;DHT22;38010;53.264;6.592;2023-08-20T07:16:34;21.50;99.90
51996;DHT22;38010;53.264;6.592;2023-08-20T07:19:00;21.50;99.90
51996;DHT22;38010;53.264;6.592;2023-08-20T07:21:25;21.50;99.90
51996;DHT22;38010;53.264;6.592;2023-08-20T07:23:51;21.50;99.90
51996;DHT22;38010;53.264;6.592;2023-08-20T07:26:17;21.50;99.90
51996;DHT22;38010;53.264;6.592;2023-08-20T07:28:43;21.50;99.90
51996;DHT22;38010;53.264;6.592;2023-08-20T07:31:28;21.50;99.90
51996;DHT22;38010;53.264;6.592;2023-08-20T07:33:54;21.50;99.90
51996;DHT22;38010;53.264;6.592;2023-08-20T07:36:21;21.50;99.90
51996;DHT22;38010;53.264;6.592;2023-08-20T07:38:51;21.50;99.90
51996;DHT22;38010;53.264;6.592;2023-08-20T07:41:17;21.50;99.90
51996;DHT22;38010;53.264;6.592;2023-08-20T07:43:43;21.50;99.90
51996;DHT22;38010;53.264;6.592;2023-08-20T07:46:10;21.50;99.90
51996;DHT22;38010;53.264;6.592;2023-08-20T07:48:36;21.50;99.90
51996;DHT22;38010;53.264;6.592;2023-08-20T07:51:02;21.50;99.90
51996;DHT22;38010;53.264;6.592;2023-08-20T07:53:28;21.50;99.90
51996;DHT22;38010;53.264;6.592;2023-08-20T07:55:54;21.50;99.90
51996;DHT22;38010;53.264;6.592;2023-08-20T07:58:20;21.50;99.90
51996;DHT22;38010;53.264;6.592;2023-08-20T08:00:46;21.50;99.90
51996;DHT22;38010;53.264;6.592;2023-08-20T08:03:12;21.50;99.90
51996;DHT22;38010;53.264;6.592;2023-08-20T08:05:40;21.50;99.90
51996;DHT22;38010;53.264;6.592;2023-08-20T08:08:06;21.60;99.90
51996;DHT22;38010;53.264;6.592;2023-08-20T08:10:32;21.50;99.90
51996;DHT22;38010;53.264;6.592;2023-08-20T08:12:58;21.50;99.90
51996;DHT22;38010;53.264;6.592;2023-08-20T08:15:23;21.50;99.90
51996;DHT22;38010;53.264;6.592;2023-08-20T08:17:49;21.60;99.90
51996;DHT22;38010;53.264;6.592;2023-08-20T08:20:15;21.60;99.90
51996;DHT22;38010;53.264;6.592;2023-08-20T08:22:40;21.60;99.90
51996;DHT22;38010;53.264;6.592;2023-08-20T08:25:06;21.60;99.90
51996;DHT22;38010;53.264;6.592;2023-08-20T08:27:32;21.60;99.90
51996;DHT22;38010;53.264;6.592;2023-08-20T08:29:58;21.60;99.90
51996;DHT22;38010;53.264;6.592;2023-08-20T08:32:23;21.60;99.90
51996;DHT22;38010;53.264;6.592;2023-08-20T08:34:49;21.60;99.90
51996;DHT22;38010;53.264;6.592;2023-08-20T08:37:15;21.60;99.90
51996;DHT22;38010;53.264;6.592;2023-08-20T08:39:41;21.50;99.90
51996;DHT22;38010;53.264;6.592;2023-08-20T08:42:07;21.50;99.90
51996;DHT22;38010;53.264;6.592;2023-08-20T08:44:37;21.60;99.90
51996;DHT22;38010;53.264;6.592;2023-08-20T08:47:04;21.60;99.90
51996;DHT22;38010;53.264;6.592;2023-08-20T08:49:38;21.60;99.90
51996;DHT22;38010;53.264;6.592;2023-08-20T08:52:06;21.60;99.90
51996;DHT22;38010;53.264;6.592;2023-08-20T08:54:33;21.60;99.90
51996;DHT22;38010;53.264;6.592;2023-08-20T08:56:59;21.60;99.90
51996;DHT22;38010;53.264;6.592;2023-08-20T08:59:25;21.60;99.90
51996;DHT22;38010;53.264;6.592;2023-08-20T09:01:50;21.60;99.90
51996;DHT22;38010;53.264;6.592;2023-08-20T09:04:16;21.60;99.90
51996;DHT22;38010;53.264;6.592;2023-08-20T09:06:52;21.60;99.90
51996;DHT22;38010;53.264;6.592;2023-08-20T09:09:20;21.60;99.90
51996;DHT22;38010;53.264;6.592;2023-08-20T09:11:46;21.70;99.90
51996;DHT22;38010;53.264;6.592;2023-08-20T09:14:21;21.60;99.90
51996;DHT22;38010;53.264;6.592;2023-08-20T09:19:22;21.60;99.90
51996;DHT22;38010;53.264;6.592;2023-08-20T09:21:48;21.60;99.90
51996;DHT22;38010;53.264;6.592;2023-08-20T09:24:15;21.60;99.90
51996;DHT22;38010;53.264;6.592;2023-08-20T09:26:45;21.60;99.90
51996;DHT22;38010;53.264;6.592;2023-08-20T09:29:11;21.70;99.90
51996;DHT22;38010;53.264;6.592;2023-08-20T09:31:38;21.60;99.90
51996;DHT22;38010;53.264;6.592;2023-08-20T09:34:04;21.60;99.90
51996;DHT22;38010;53.264;6.592;2023-08-20T09:36:34;21.70;99.90
51996;DHT22;38010;53.264;6.592;2023-08-20T09:39:04;21.60;99.90
51996;DHT22;38010;53.264;6.592;2023-08-20T09:41:30;21.70;99.90
51996;DHT22;38010;53.264;6.592;2023-08-20T09:44:04;21.70;99.90
51996;DHT22;38010;53.264;6.592;2023-08-20T09:46:32;21.70;99.90
51996;DHT22;38010;53.264;6.592;2023-08-20T09:48:59;21.70;99.90
51996;DHT22;38010;53.264;6.592;2023-08-20T09:51:27;21.70;99.90
51996;DHT22;38010;53.264;6.592;2023-08-20T09:54:06;21.70;99.90
51996;DHT22;38010;53.264;6.592;2023-08-20T09:56:39;21.70;99.90
51996;DHT22;38010;53.264;6.592;2023-08-20T09:59:05;21.70;99.90
51996;DHT22;38010;53.264;6.592;2023-08-20T10:01:32;21.70;99.90
51996;DHT22;38010;53.264;6.592;2023-08-20T10:03:58;21.70;99.90
51996;DHT22;38010;53.264;6.592;2023-08-20T10:06:25;21.70;99.90
51996;DHT22;38010;53.264;6.592;2023-08-20T10:08:53;21.70;99.90
51996;DHT22;38010;53.264;6.592;2023-08-20T10:11:19;21.70;99.90
51996;DHT22;38010;53.264;6.592;2023-08-20T10:13:45;21.70;99.90
51996;DHT22;38010;53.264;6.592;2023-08-20T10:16:12;21.70;99.90
51996;DHT22;38010;53.264;6.592;2023-08-20T10:18:39;21.70;99.90
51996;DHT22;38010;53.264;6.592;2023-08-20T10:21:05;21.70;99.90
51996;DHT22;38010;53.264;6.592;2023-08-20T10:23:34;21.70;99.90
51996;DHT22;38010;53.264;6.592;2023-08-20T10:26:10;21.70;99.90
51996;DHT22;38010;53.264;6.592;2023-08-20T10:28:36;21.70;99.90
51996;DHT22;38010;53.264;6.592;2023-08-20T10:31:07;21.70;99.90
51996;DHT22;38010;53.264;6.592;2023-08-20T10:36:17;21.80;99.90
51996;DHT22;38010;53.264;6.592;2023-08-20T10:38:47;21.80;99.90
51996;DHT22;38010;53.264;6.592;2023-08-20T10:41:13;21.90;99.90
51996;DHT22;38010;53.264;6.592;2023-08-20T10:43:48;21.90;99.90
51996;DHT22;38010;53.264;6.592;2023-08-20T10:46:19;21.90;99.90
51996;DHT22;38010;53.264;6.592;2023-08-20T10:51:16;22.00;99.90
51996;DHT22;38010;53.264;6.592;2023-08-20T10:53:48;22.00;99.90
51996;DHT22;38010;53.264;6.592;2023-08-20T10:56:17;22.10;99.90
51996;DHT22;38010;53.264;6.592;2023-08-20T10:58:45;22.10;99.90
51996;DHT22;38010;53.264;6.592;2023-08-20T11:01:22;22.10;99.90
51996;DHT22;38010;53.264;6.592;2023-08-20T11:03:50;22.10;99.90
51996;DHT22;38010;53.264;6.592;2023-08-20T11:06:17;22.10;99.90
51996;DHT22;38010;53.264;6.592;2023-08-20T11:08:43;22.20;99.90
51996;DHT22;38010;53.264;6.592;2023-08-20T11:11:10;22.20;99.90
51996;DHT22;38010;53.264;6.592;2023-08-20T11:13:37;22.20;99.90
51996;DHT22;38010;53.264;6.592;2023-08-20T11:16:03;22.20;99.90
51996;DHT22;38010;53.264;6.592;2023-08-20T11:18:32;22.20;99.90
51996;DHT22;38010;53.264;6.592;2023-08-20T11:20:59;22.20;99.90
51996;DHT22;38010;53.264;6.592;2023-08-20T11:23:25;22.20;99.90
51996;DHT22;38010;53.264;6.592;2023-08-20T11:25:51;22.30;99.90
51996;DHT22;38010;53.264;6.592;2023-08-20T11:28:17;22.20;99.90
51996;DHT22;38010;53.264;6.592;2023-08-20T11:30:43;22.30;99.90
51996;DHT22;38010;53.264;6.592;2023-08-20T11:33:08;22.30;99.90
51996;DHT22;38010;53.264;6.592;2023-08-20T11:35:35;22.30;99.90
51996;DHT22;38010;53.264;6.592;2023-08-20T11:38:02;22.30;99.90
51996;DHT22;38010;53.264;6.592;2023-08-20T11:40:28;22.30;99.90
51996;DHT22;38010;53.264;6.592;2023-08-20T11:42:54;22.30;99.90
51996;DHT22;38010;53.264;6.592;2023-08-20T11:45:19;22.30;99.90
51996;DHT22;38010;53.264;6.592;2023-08-20T11:47:45;22.30;99.90
51996;DHT22;38010;53.264;6.592;2023-08-20T11:50:11;22.20;99.90
51996;DHT22;38010;53.264;6.592;2023-08-20T11:52:37;22.20;99.90
51996;DHT22;38010;53.264;6.592;2023-08-20T11:55:05;22.20;99.90
51996;DHT22;38010;53.264;6.592;2023-08-20T11:57:31;22.20;99.90
51996;DHT22;38010;53.264;6.592;2023-08-20T12:00:05;22.20;99.90
51996;DHT22;38010;53.264;6.592;2023-08-20T12:02:35;22.20;99.90
51996;DHT22;38010;53.264;6.592;2023-08-20T12:05:00;22.20;99.90
51996;DHT22;38010;53.264;6.592;2023-08-20T12:07:28;22.20;99.90
51996;DHT22;38010;53.264;6.592;2023-08-20T12:09:55;22.20;99.90
51996;DHT22;38010;53.264;6.592;2023-08-20T12:12:21;22.20;99.90
51996;DHT22;38010;53.264;6.592;2023-08-20T12:14:47;22.20;99.90
51996;DHT22;38010;53.264;6.592;2023-08-20T12:17:17;22.20;99.90
51996;DHT22;38010;53.264;6.592;2023-08-20T12:19:42;22.20;99.90
51996;DHT22;38010;53.264;6.592;2023-08-20T12:22:08;22.20;99.90
51996;DHT22;38010;53.264;6.592;2023-08-20T12:24:34;22.20;99.90
51996;DHT22;38010;53.264;6.592;2023-08-20T12:26:59;22.30;99.90
51996;DHT22;38010;53.264;6.592;2023-08-20T12:29:25;22.30;99.90
51996;DHT22;38010;53.264;6.592;2023-08-20T12:31:51;22.30;99.90
51996;DHT22;38010;53.264;6.592;2023-08-20T12:34:17;22.30;99.90
51996;DHT22;38010;53.264;6.592;2023-08-20T12:36:42;22.30;99.90
51996;DHT22;38010;53.264;6.592;2023-08-20T12:39:08;22.30;99.90
51996;DHT22;38010;53.264;6.592;2023-08-20T12:41:34;22.40;99.90
51996;DHT22;38010;53.264;6.592;2023-08-20T12:44:02;22.40;99.90
51996;DHT22;38010;53.264;6.592;2023-08-20T12:46:28;22.40;99.90
51996;DHT22;38010;53.264;6.592;2023-08-20T12:48:53;22.40;99.90
51996;DHT22;38010;53.264;6.592;2023-08-20T12:51:19;22.40;99.90
51996;DHT22;38010;53.264;6.592;2023-08-20T12:53:45;22.40;99.90
51996;DHT22;38010;53.264;6.592;2023-08-20T12:56:11;22.40;99.90
51996;DHT22;38010;53.264;6.592;2023-08-20T12:58:37;22.50;99.90
51996;DHT22;38010;53.264;6.592;2023-08-20T13:01:03;22.50;99.90
51996;DHT22;38010;53.264;6.592;2023-08-20T13:03:29;22.50;99.90
51996;DHT22;38010;53.264;6.592;2023-08-20T13:05:55;22.60;99.90
51996;DHT22;38010;53.264;6.592;2023-08-20T13:08:24;22.60;99.90
51996;DHT22;38010;53.264;6.592;2023-08-20T13:10:55;22.60;99.90
51996;DHT22;38010;53.264;6.592;2023-08-20T13:13:22;22.70;99.90
51996;DHT22;38010;53.264;6.592;2023-08-20T13:15:50;22.60;99.90
51996;DHT22;38010;53.264;6.592;2023-08-20T13:18:16;22.80;99.90
51996;DHT22;38010;53.264;6.592;2023-08-20T13:20:41;22.80;99.90
51996;DHT22;38010;53.264;6.592;2023-08-20T13:23:09;22.80;99.90
51996;DHT22;38010;53.264;6.592;2023-08-20T14:48:24;24.60;99.90
51996;DHT22;38010;53.264;6.592;2023-08-20T14:50:51;24.50;99.90
51996;DHT22;38010;53.264;6.592;2023-08-20T14:53:17;24.50;99.90
51996;DHT22;38010;53.264;6.592;2023-08-20T14:55:46;24.50;99.90
51996;DHT22;38010;53.264;6.592;2023-08-20T14:58:12;24.40;99.90
51996;DHT22;38010;53.264;6.592;2023-08-20T15:00:38;24.40;99.90
51996;DHT22;38010;53.264;6.592;2023-08-20T15:03:04;24.30;99.90
51996;DHT22;38010;53.264;6.592;2023-08-20T15:05:32;24.20;99.90
51996;DHT22;38010;53.264;6.592;2023-08-20T15:07:57;24.10;99.90
51996;DHT22;38010;53.264;6.592;2023-08-20T15:10:23;24.00;99.90
51996;DHT22;38010;53.264;6.592;2023-08-20T15:12:49;24.00;99.90
51996;DHT22;38010;53.264;6.592;2023-08-20T15:15:15;24.00;99.90
51996;DHT22;38010;53.264;6.592;2023-08-20T15:17:40;23.90;99.90
51996;DHT22;38010;53.264;6.592;2023-08-20T15:20:06;23.80;99.90
51996;DHT22;38010;53.264;6.592;2023-08-20T15:22:39;23.80;99.90
51996;DHT22;38010;53.264;6.592;2023-08-20T15:25:05;23.80;99.90
51996;DHT22;38010;53.264;6.592;2023-08-20T15:27:35;23.80;99.90
51996;DHT22;38010;53.264;6.592;2023-08-20T15:30:01;23.70;99.90
51996;DHT22;38010;53.264;6.592;2023-08-20T15:32:29;23.60;99.90
51996;DHT22;38010;53.264;6.592;2023-08-20T15:34:55;23.60;99.90
51996;DHT22;38010;53.264;6.592;2023-08-20T15:37:21;23.60;99.90
51996;DHT22;38010;53.264;6.592;2023-08-20T15:39:47;23.60;99.90
51996;DHT22;38010;53.264;6.592;2023-08-20T15:42:13;23.60;99.90
51996;DHT22;38010;53.264;6.592;2023-08-20T15:44:41;23.50;99.90
51996;DHT22;38010;53.264;6.592;2023-08-20T15:47:07;23.50;99.90
51996;DHT22;38010;53.264;6.592;2023-08-20T15:49:33;23.50;99.90
51996;DHT22;38010;53.264;6.592;2023-08-20T15:52:00;23.50;99.90
51996;DHT22;38010;53.264;6.592;2023-08-20T15:54:26;23.50;99.90
51996;DHT22;38010;53.264;6.592;2023-08-20T15:56:51;23.50;99.90
51996;DHT22;38010;53.264;6.592;2023-08-20T15:59:17;23.50;99.90
51996;DHT22;38010;53.264;6.592;2023-08-20T16:01:43;23.50;99.90
51996;DHT22;38010;53.264;6.592;2023-08-20T16:04:09;23.50;99.90
51996;DHT22;38010;53.264;6.592;2023-08-20T16:06:35;23.40;99.90
51996;DHT22;38010;53.264;6.592;2023-08-20T16:09:01;23.40;99.90
51996;DHT22;38010;53.264;6.592;2023-08-20T16:11:29;23.40;99.90
51996;DHT22;38010;53.264;6.592;2023-08-20T16:13:55;23.30;99.90
51996;DHT22;38010;53.264;6.592;2023-08-20T16:16:21;23.30;99.90
51996;DHT22;38010;53.264;6.592;2023-08-20T16:18:47;23.30;99.90
51996;DHT22;38010;53.264;6.592;2023-08-20T16:21:12;23.30;99.90
51996;DHT22;38010;53.264;6.592;2023-08-20T16:23:39;23.20;99.90
51996;DHT22;38010;53.264;6.592;2023-08-20T16:26:04;23.20;99.90
51996;DHT22;38010;53.264;6.592;2023-08-20T16:28:30;23.20;99.90
51996;DHT22;38010;53.264;6.592;2023-08-20T16:30:56;23.10;99.90
51996;DHT22;38010;53.264;6.592;2023-08-20T16:33:23;23.10;99.90
51996;DHT22;38010;53.264;6.592;2023-08-20T16:35:52;23.10;99.90
51996;DHT22;38010;53.264;6.592;2023-08-20T16:38:18;23.10;99.90
51996;DHT22;38010;53.264;6.592;2023-08-20T16:40:43;23.10;99.90
51996;DHT22;38010;53.264;6.592;2023-08-20T16:43:09;23.10;99.90
51996;DHT22;38010;53.264;6.592;2023-08-20T16:45:35;23.10;99.90
51996;DHT22;38010;53.264;6.592;2023-08-20T16:48:02;23.10;99.90
51996;DHT22;38010;53.264;6.592;2023-08-20T16:50:28;23.00;99.90
51996;DHT22;38010;53.264;6.592;2023-08-20T16:52:54;23.00;99.90
51996;DHT22;38010;53.264;6.592;2023-08-20T16:55:20;23.00;99.90
51996;DHT22;38010;53.264;6.592;2023-08-20T16:57:45;23.00;99.90
51996;DHT22;38010;53.264;6.592;2023-08-20T17:00:11;23.00;99.90
51996;DHT22;38010;53.264;6.592;2023-08-20T17:02:38;23.00;99.90